Time,TemperatureF,DewpointF,PressureIn,WindDirection,WindDirectionDegrees,WindSpeedMPH,WindSpeedGustMPH,Humidity,HourlyPrecipIn,Conditions,Clouds,dailyrainin,SolarRadiationWatts/m^2,SoftwareType,DateUTC
2013-10-03 00:22:00,32.0,30.0,-100.00,East,101,2.0,5.0,92,0.00,,,0.00,0.000000,,2013-10-03 07:22:00,
2013-10-03 00:31:00,32.0,30.0,-100.00,East,101,2.0,5.0,92,0.00,,,0.00,0.000000,,2013-10-03 07:31:00,
2013-10-03 00:41:00,32.0,30.0,-100.00,East,101,2.0,5.0,92,0.00,,,0.00,0.000000,,2013-10-03 07:41:00,
2013-10-03 00:52:00,32.0,30.0,-100.00,East,101,2.0,5.0,92,0.00,,,0.00,0.000000,,2013-10-03 07:52:00,
2013-10-03 01:22:00,33.0,32.0,-100.00,NW,314,2.0,4.0,95,0.00,,,0.00,0.000000,,2013-10-03 08:22:00,
2013-10-03 01:32:00,33.0,32.0,-100.00,NW,314,2.0,4.0,95,0.00,,,0.00,0.000000,,2013-10-03 08:32:00,
2013-10-03 01:42:00,33.0,32.0,-100.00,NW,314,2.0,4.0,95,0.00,,,0.00,0.000000,,2013-10-03 08:42:00,
2013-10-03 01:52:00,33.0,32.0,-100.00,NW,314,2.0,4.0,95,0.00,,,0.00,0.000000,,2013-10-03 08:52:00,
2013-10-03 02:21:00,33.0,30.0,-100.00,North,6,4.0,10.0,88,0.00,,,0.00,0.000000,,2013-10-03 09:21:00,
2013-10-03 02:33:00,33.0,30.0,-100.00,North,6,4.0,10.0,88,0.00,,,0.00,0.000000,,2013-10-03 09:33:00,
2013-10-03 02:43:00,33.0,30.0,-100.00,North,6,4.0,10.0,88,0.00,,,0.00,0.000000,,2013-10-03 09:43:00,
2013-10-03 02:53:00,33.0,30.0,-100.00,North,6,4.0,10.0,88,0.00,,,0.00,0.000000,,2013-10-03 09:53:00,
2013-10-03 03:23:00,29.0,27.0,-100.00,East,84,4.0,9.0,91,0.00,,,0.00,0.000000,,2013-10-03 10:23:00,
2013-10-03 03:33:00,29.0,27.0,-100.00,East,84,4.0,9.0,91,0.00,,,0.00,0.000000,,2013-10-03 10:33:00,
2013-10-03 03:43:00,29.0,27.0,-100.00,East,84,4.0,9.0,91,0.00,,,0.00,0.000000,,2013-10-03 10:43:00,
2013-10-03 03:52:00,29.0,27.0,-100.00,East,84,4.0,9.0,91,0.00,,,0.00,0.000000,,2013-10-03 10:52:00,
2013-10-03 04:23:00,31.0,28.0,-100.00,East,91,2.0,4.0,90,0.00,,,0.00,0.000000,,2013-10-03 11:23:00,
2013-10-03 04:33:00,31.0,28.0,-100.00,East,91,2.0,4.0,90,0.00,,,0.00,0.000000,,2013-10-03 11:33:00,
2013-10-03 04:42:00,31.0,28.0,-100.00,East,91,2.0,4.0,90,0.00,,,0.00,0.000000,,2013-10-03 11:42:00,
2013-10-03 04:52:00,31.0,28.0,-100.00,East,91,2.0,4.0,90,0.00,,,0.00,0.000000,,2013-10-03 11:52:00,
2013-10-03 05:22:00,29.0,28.0,-100.00,NE,51,4.0,6.0,95,0.00,,,0.00,0.000000,,2013-10-03 12:22:00,
2013-10-03 05:32:00,29.0,28.0,-100.00,NE,51,4.0,6.0,95,0.00,,,0.00,0.000000,,2013-10-03 12:32:00,
2013-10-03 05:42:00,29.0,28.0,-100.00,NE,51,4.0,6.0,95,0.00,,,0.00,0.000000,,2013-10-03 12:42:00,
2013-10-03 05:52:00,29.0,28.0,-100.00,NE,51,4.0,6.0,95,0.00,,,0.00,0.000000,,2013-10-03 12:52:00,
2013-10-03 06:21:00,28.0,27.0,-100.00,East,86,4.0,8.0,95,0.00,,,0.00,0.000000,,2013-10-03 13:21:00,
2013-10-03 06:32:00,28.0,27.0,-100.00,East,86,4.0,8.0,95,0.00,,,0.00,0.000000,,2013-10-03 13:32:00,
2013-10-03 06:42:00,28.0,27.0,-100.00,East,86,4.0,8.0,95,0.00,,,0.00,0.000000,,2013-10-03 13:42:00,
2013-10-03 06:52:00,28.0,27.0,-100.00,East,86,4.0,8.0,95,0.00,,,0.00,0.000000,,2013-10-03 13:52:00,
2013-10-03 07:22:00,28.0,27.0,-100.00,East,81,3.0,6.0,95,0.00,,,0.00,0.000000,,2013-10-03 14:22:00,
2013-10-03 07:32:00,28.0,27.0,-100.00,East,81,3.0,6.0,95,0.00,,,0.00,0.000000,,2013-10-03 14:32:00,
2013-10-03 07:42:00,28.0,27.0,-100.00,East,81,3.0,6.0,95,0.00,,,0.00,0.000000,,2013-10-03 14:42:00,
2013-10-03 07:52:00,28.0,27.0,-100.00,East,81,3.0,6.0,95,0.00,,,0.00,0.000000,,2013-10-03 14:52:00,
2013-10-03 08:22:00,28.0,27.0,-100.00,ENE,64,4.0,7.0,96,0.00,,,0.00,11.000000,,2013-10-03 15:22:00,
2013-10-03 08:33:00,28.0,27.0,-100.00,ENE,64,4.0,7.0,96,0.00,,,0.00,11.000000,,2013-10-03 15:33:00,
2013-10-03 08:43:00,28.0,27.0,-100.00,ENE,64,4.0,7.0,96,0.00,,,0.00,11.000000,,2013-10-03 15:43:00,
2013-10-03 08:53:00,28.0,27.0,-100.00,ENE,64,4.0,7.0,96,0.00,,,0.00,11.000000,,2013-10-03 15:53:00,
2013-10-03 09:23:00,35.0,30.0,-100.00,ENE,57,3.0,6.0,81,0.00,,,0.00,199.000000,,2013-10-03 16:23:00,
2013-10-03 09:33:00,35.0,30.0,-100.00,ENE,57,3.0,6.0,81,0.00,,,0.00,199.000000,,2013-10-03 16:33:00,
2013-10-03 09:42:00,35.0,30.0,-100.00,ENE,57,3.0,6.0,81,0.00,,,0.00,199.000000,,2013-10-03 16:42:00,
2013-10-03 09:53:00,35.0,30.0,-100.00,ENE,57,3.0,6.0,81,0.00,,,0.00,199.000000,,2013-10-03 16:53:00,
2013-10-03 10:22:00,39.0,30.0,-100.00,NNE,33,6.0,10.0,69,0.00,,,0.00,424.000000,,2013-10-03 17:22:00,
2013-10-03 10:33:00,39.0,30.0,-100.00,NNE,33,6.0,10.0,69,0.00,,,0.00,424.000000,,2013-10-03 17:33:00,
2013-10-03 10:42:00,39.0,30.0,-100.00,NNE,33,6.0,10.0,69,0.00,,,0.00,424.000000,,2013-10-03 17:42:00,
2013-10-03 10:52:00,39.0,30.0,-100.00,NNE,33,6.0,10.0,69,0.00,,,0.00,424.000000,,2013-10-03 17:52:00,
2013-10-03 11:22:00,42.0,27.0,-100.00,ENE,60,6.0,15.0,56,0.00,,,-99.99,587.000000,,2013-10-03 18:22:00,
2013-10-03 11:32:00,42.0,27.0,-100.00,ENE,60,6.0,15.0,56,0.00,,,-99.99,587.000000,,2013-10-03 18:32:00,
2013-10-03 11:42:00,42.0,27.0,-100.00,ENE,60,6.0,15.0,56,0.00,,,-99.99,587.000000,,2013-10-03 18:42:00,
2013-10-03 11:52:00,42.0,27.0,-100.00,ENE,60,6.0,15.0,56,0.00,,,-99.99,587.000000,,2013-10-03 18:52:00,
2013-10-03 12:21:00,46.0,29.0,-100.00,NNE,13,7.0,14.0,51,0.00,,,0.00,645.000000,,2013-10-03 19:21:00,
2013-10-03 12:32:00,46.0,29.0,-100.00,NNE,13,7.0,14.0,51,0.00,,,0.00,645.000000,,2013-10-03 19:32:00,
2013-10-03 12:42:00,46.0,29.0,-100.00,NNE,13,7.0,14.0,51,0.00,,,0.00,645.000000,,2013-10-03 19:42:00,
2013-10-03 12:52:00,46.0,29.0,-100.00,NNE,13,7.0,14.0,51,0.00,,,0.00,645.000000,,2013-10-03 19:52:00,
2013-10-03 13:21:00,48.0,28.0,-100.00,North,2,9.0,19.0,45,0.00,,,0.00,803.000000,,2013-10-03 20:21:00,
2013-10-03 13:32:00,48.0,28.0,-100.00,North,2,9.0,19.0,45,0.00,,,0.00,803.000000,,2013-10-03 20:32:00,
2013-10-03 13:42:00,48.0,28.0,-100.00,North,2,9.0,19.0,45,0.00,,,0.00,803.000000,,2013-10-03 20:42:00,
2013-10-03 13:52:00,48.0,28.0,-100.00,North,2,9.0,19.0,45,0.00,,,0.00,803.000000,,2013-10-03 20:52:00,
2013-10-03 14:21:00,51.0,28.0,-100.00,NE,43,6.0,23.0,41,0.00,,,0.00,821.000000,,2013-10-03 21:21:00,
2013-10-03 14:34:00,51.0,28.0,-100.00,NE,43,6.0,23.0,41,0.00,,,0.00,821.000000,,2013-10-03 21:34:00,
2013-10-03 14:43:00,51.0,28.0,-100.00,NE,43,6.0,23.0,41,0.00,,,0.00,821.000000,,2013-10-03 21:43:00,
2013-10-03 14:54:00,51.0,28.0,-100.00,NE,43,6.0,23.0,41,0.00,,,0.00,821.000000,,2013-10-03 21:54:00,
2013-10-03 15:23:00,52.0,26.0,-100.00,NE,39,8.0,16.0,36,0.00,,,0.00,781.000000,,2013-10-03 22:23:00,
2013-10-03 15:33:00,52.0,26.0,-100.00,NE,39,8.0,16.0,36,0.00,,,0.00,781.000000,,2013-10-03 22:33:00,
2013-10-03 15:43:00,52.0,26.0,-100.00,NE,39,8.0,16.0,36,0.00,,,0.00,781.000000,,2013-10-03 22:43:00,
2013-10-03 15:54:00,52.0,26.0,-100.00,NE,39,8.0,16.0,36,0.00,,,0.00,781.000000,,2013-10-03 22:54:00,
2013-10-03 16:22:00,54.0,25.0,-100.00,North,5,8.0,18.0,32,0.00,,,0.00,629.000000,,2013-10-03 23:22:00,
2013-10-03 16:34:00,54.0,25.0,-100.00,North,5,8.0,18.0,32,0.00,,,0.00,629.000000,,2013-10-03 23:34:00,
2013-10-03 16:43:00,54.0,25.0,-100.00,North,5,8.0,18.0,32,0.00,,,0.00,629.000000,,2013-10-03 23:43:00,
2013-10-03 16:52:00,54.0,25.0,-100.00,North,5,8.0,18.0,32,0.00,,,0.00,629.000000,,2013-10-03 23:52:00,
2013-10-03 17:21:00,54.0,24.0,-100.00,NNE,17,7.0,15.0,31,0.00,,,0.00,461.000000,,2013-10-04 00:21:00,
2013-10-03 17:32:00,54.0,24.0,-100.00,NNE,17,7.0,15.0,31,0.00,,,0.00,461.000000,,2013-10-04 00:32:00,
2013-10-03 17:42:00,54.0,24.0,-100.00,NNE,17,7.0,15.0,31,0.00,,,0.00,461.000000,,2013-10-04 00:42:00,
2013-10-03 17:52:00,54.0,24.0,-100.00,NNE,17,7.0,15.0,31,0.00,,,0.00,461.000000,,2013-10-04 00:52:00,
2013-10-03 18:21:00,52.0,25.0,-100.00,NNE,31,6.0,15.0,34,0.00,,,0.00,262.000000,,2013-10-04 01:21:00,
2013-10-03 18:32:00,52.0,25.0,-100.00,NNE,31,6.0,15.0,34,0.00,,,0.00,262.000000,,2013-10-04 01:32:00,
2013-10-03 18:42:00,52.0,25.0,-100.00,NNE,31,6.0,15.0,34,0.00,,,0.00,262.000000,,2013-10-04 01:42:00,
2013-10-03 18:52:00,52.0,25.0,-100.00,NNE,31,6.0,15.0,34,0.00,,,0.00,262.000000,,2013-10-04 01:52:00,
2013-10-03 19:22:00,46.0,23.0,-100.00,North,358,5.0,10.0,40,0.00,,,0.00,57.000000,,2013-10-04 02:22:00,
2013-10-03 19:32:00,46.0,23.0,-100.00,North,358,5.0,10.0,40,0.00,,,0.00,57.000000,,2013-10-04 02:32:00,
2013-10-03 19:43:00,46.0,23.0,-100.00,North,358,5.0,10.0,40,0.00,,,0.00,57.000000,,2013-10-04 02:43:00,
2013-10-03 19:52:00,46.0,23.0,-100.00,North,358,5.0,10.0,40,0.00,,,0.00,57.000000,,2013-10-04 02:52:00,
2013-10-03 19:56:00,44.0,25.0,-100.00,NNE,13,5.0,9.0,46,0.00,,,0.00,0.000000,,2013-10-04 02:56:00,
2013-10-03 20:22:00,44.0,25.0,-100.00,NNE,13,5.0,9.0,46,0.00,,,0.00,0.000000,,2013-10-04 03:22:00,
2013-10-03 20:34:00,44.0,25.0,-100.00,NNE,13,5.0,9.0,46,0.00,,,0.00,0.000000,,2013-10-04 03:34:00,
2013-10-03 20:44:00,44.0,25.0,-100.00,NNE,13,5.0,9.0,46,0.00,,,0.00,0.000000,,2013-10-04 03:44:00,
2013-10-03 20:56:00,41.0,24.0,-100.00,NNE,31,6.0,12.0,50,0.00,,,0.00,0.000000,,2013-10-04 03:56:00,
2013-10-03 21:37:00,41.0,24.0,-100.00,NNE,31,6.0,12.0,50,0.00,,,0.00,0.000000,,2013-10-04 04:37:00,
2013-10-03 21:47:00,41.0,24.0,-100.00,NNE,31,6.0,12.0,50,0.00,,,0.00,0.000000,,2013-10-04 04:47:00,
2013-10-03 22:28:00,39.0,24.0,-100.00,NE,41,6.0,12.0,55,0.00,,,0.00,0.000000,,2013-10-04 05:28:00,
2013-10-03 22:37:00,39.0,24.0,-100.00,NE,41,6.0,12.0,55,0.00,,,0.00,0.000000,,2013-10-04 05:37:00,
2013-10-03 22:46:00,39.0,24.0,-100.00,NE,41,6.0,12.0,55,0.00,,,0.00,0.000000,,2013-10-04 05:46:00,
2013-10-03 22:55:00,39.0,24.0,-100.00,NE,41,6.0,12.0,55,0.00,,,0.00,0.000000,,2013-10-04 05:55:00,
2013-10-03 23:25:00,37.0,25.0,-100.00,NE,34,6.0,10.0,62,0.00,,,0.00,0.000000,,2013-10-04 06:25:00,
2013-10-03 23:34:00,37.0,25.0,-100.00,NE,34,6.0,10.0,62,0.00,,,0.00,0.000000,,2013-10-04 06:34:00,
2013-10-03 23:45:00,37.0,25.0,-100.00,NE,34,6.0,10.0,62,0.00,,,0.00,0.000000,,2013-10-04 06:45:00,
2013-10-03 23:54:00,37.0,25.0,-100.00,NE,34,6.0,10.0,62,0.00,,,0.00,0.000000,,2013-10-04 06:54:00,